createdAt,value
2019-02-12T00:00:23.782Z,16.80
2019-02-12T00:02:53.001Z,14.47
2019-02-12T00:05:22.256Z,17.83
2019-02-12T00:07:51.495Z,12.67
2019-02-12T00:10:20.739Z,10.93
2019-02-12T00:12:50.018Z,21.30
2019-02-12T00:15:19.250Z,19.20
2019-02-12T00:17:49.496Z,14.73
2019-02-12T00:20:20.745Z,21.00
2019-02-12T00:22:50.004Z,12.53
2019-02-12T00:25:19.257Z,18.30
2019-02-12T00:27:48.506Z,16.90
2019-02-12T00:30:18.663Z,21.10
2019-02-12T00:32:47.915Z,19.60
2019-02-12T00:35:18.076Z,15.87
2019-02-12T00:37:48.298Z,17.37
2019-02-12T00:40:17.550Z,16.87
2019-02-12T00:42:47.703Z,14.97
2019-02-12T00:45:16.943Z,18.27
2019-02-12T00:47:46.213Z,18.07
2019-02-12T00:50:16.430Z,21.07
2019-02-12T00:52:45.675Z,14.53
2019-02-12T00:55:14.926Z,24.13
2019-02-12T00:57:45.168Z,20.83
2019-02-12T01:00:15.633Z,16.50
2019-02-12T01:02:44.883Z,17.57
2019-02-12T01:05:14.116Z,25.87
2019-02-12T01:07:43.381Z,27.40
2019-02-12T01:10:13.612Z,20.03
2019-02-12T01:12:43.871Z,20.43
2019-02-12T01:15:13.882Z,22.60
2019-02-12T01:17:43.111Z,19.07
2019-02-12T01:20:15.190Z,29.37
2019-02-12T01:22:44.429Z,26.30
2019-02-12T01:25:13.667Z,22.07
2019-02-12T01:27:42.901Z,24.30
2019-02-12T01:30:14.287Z,21.27
2019-02-12T01:32:43.554Z,31.80
2019-02-12T01:35:12.791Z,16.40
2019-02-12T01:37:42.101Z,21.97
2019-02-12T01:40:12.458Z,22.10
2019-02-12T01:42:41.706Z,19.30
2019-02-12T01:45:11.879Z,20.90
2019-02-12T01:47:41.097Z,24.27
2019-02-12T01:50:11.878Z,20.20
2019-02-12T01:52:41.116Z,16.90
2019-02-12T01:55:10.359Z,22.20
2019-02-12T01:57:40.599Z,18.97
2019-02-12T02:00:12.877Z,16.90
2019-02-12T02:02:42.455Z,23.60
2019-02-12T02:05:11.697Z,13.43
2019-02-12T02:07:40.944Z,15.13
2019-02-12T02:10:15.519Z,22.47
2019-02-12T02:12:44.746Z,17.70
2019-02-12T02:15:14.551Z,16.30
2019-02-12T02:17:45.719Z,14.07
2019-02-12T02:20:15.343Z,14.90
2019-02-12T02:22:44.570Z,21.40
2019-02-12T02:25:14.055Z,19.93
2019-02-12T02:27:43.311Z,14.40
2019-02-12T02:30:14.892Z,18.17
2019-02-12T02:32:46.122Z,21.60
2019-02-12T02:35:15.357Z,16.87
2019-02-12T02:37:44.584Z,16.37
2019-02-12T02:40:13.831Z,18.83
2019-02-12T02:42:43.066Z,17.13
2019-02-12T02:45:13.144Z,14.37
2019-02-12T02:47:42.397Z,19.57
2019-02-12T02:50:11.638Z,18.13
2019-02-12T02:52:40.888Z,14.90
2019-02-12T02:55:10.216Z,13.93
2019-02-12T02:57:39.442Z,14.57
2019-02-12T03:00:10.879Z,20.23
2019-02-12T03:02:40.135Z,17.17
2019-02-12T03:05:11.012Z,17.07
2019-02-12T03:07:41.311Z,17.53
2019-02-12T03:10:10.958Z,20.63
2019-02-12T03:12:40.208Z,26.30
2019-02-12T03:15:10.993Z,19.50
2019-02-12T03:17:40.253Z,18.70
2019-02-12T03:20:11.441Z,28.60
2019-02-12T03:22:40.691Z,28.07
2019-02-12T03:25:10.589Z,32.30
2019-02-12T03:27:39.835Z,27.10
2019-02-12T03:30:11.282Z,30.77
2019-02-12T03:32:40.521Z,28.67
2019-02-12T03:35:10.501Z,29.70
2019-02-12T03:37:39.755Z,28.70
2019-02-12T03:40:10.826Z,29.53
2019-02-12T03:42:40.080Z,33.63
2019-02-12T03:45:11.848Z,24.47
2019-02-12T03:47:41.106Z,30.07
2019-02-12T03:50:12.429Z,34.03
2019-02-12T03:52:43.596Z,31.10
2019-02-12T03:55:13.457Z,41.47
2019-02-12T03:57:42.840Z,28.00
2019-02-12T04:00:14.056Z,26.43
2019-02-12T04:03:01.644Z,30.70
2019-02-12T04:09:14.441Z,32.10
2019-02-12T04:11:43.679Z,29.97
2019-02-12T04:14:12.936Z,19.30
2019-02-12T04:16:42.186Z,21.70
2019-02-12T04:19:11.431Z,15.93
2019-02-12T04:21:40.679Z,27.50
2019-02-12T04:24:09.934Z,18.37
2019-02-12T04:26:40.124Z,17.87
2019-02-12T04:29:09.365Z,18.87
2019-02-12T04:31:38.586Z,18.30
2019-02-12T04:34:08.755Z,18.40
2019-02-12T04:36:38.008Z,19.27
2019-02-12T04:39:07.241Z,14.87
2019-02-12T04:41:36.464Z,18.87
2019-02-12T04:44:06.697Z,19.67
2019-02-12T04:46:35.927Z,15.80
2019-02-12T04:49:05.189Z,15.47
2019-02-12T04:51:34.420Z,14.97
2019-02-12T04:54:03.691Z,18.97
2019-02-12T04:56:32.924Z,15.90
2019-02-12T04:59:02.164Z,12.47
2019-02-12T05:01:31.407Z,17.40
2019-02-12T05:04:01.575Z,15.47
2019-02-12T05:06:30.800Z,13.03
2019-02-12T05:09:17.597Z,20.93
2019-02-12T05:11:50.488Z,20.07
2019-02-12T05:14:19.790Z,16.97
2019-02-12T05:16:49.013Z,19.10
2019-02-12T05:19:18.267Z,18.60
2019-02-12T05:21:47.517Z,16.83
2019-02-12T05:24:16.746Z,17.43
2019-02-12T05:26:45.963Z,13.13
2019-02-12T05:29:15.210Z,14.97
2019-02-12T05:31:44.447Z,17.10
2019-02-12T05:34:14.580Z,14.90
2019-02-12T05:36:43.833Z,16.60
2019-02-12T05:39:13.083Z,16.77
2019-02-12T05:41:42.335Z,13.83
2019-02-12T05:44:11.602Z,13.07
2019-02-12T05:46:40.854Z,12.60
2019-02-12T05:49:10.100Z,14.80
2019-02-12T05:51:39.331Z,13.10
2019-02-12T05:54:09.528Z,13.13
2019-02-12T05:56:38.789Z,13.63
2019-02-12T05:59:09.051Z,15.97
2019-02-12T06:01:38.292Z,16.87
2019-02-12T06:04:07.554Z,16.70
2019-02-12T06:06:36.801Z,16.33
2019-02-12T06:09:06.140Z,15.67
2019-02-12T06:11:35.357Z,18.70
2019-02-12T06:14:04.705Z,13.13
2019-02-12T06:16:33.926Z,17.73
2019-02-12T06:19:03.179Z,16.77
2019-02-12T06:21:32.426Z,18.97
2019-02-12T06:24:02.671Z,18.60
2019-02-12T06:26:31.909Z,18.33
2019-02-12T06:29:01.244Z,15.33
2019-02-12T06:31:30.480Z,18.33
2019-02-12T06:33:59.694Z,18.10
2019-02-12T06:36:28.928Z,17.07
2019-02-12T06:38:59.162Z,13.30
2019-02-12T06:41:30.339Z,17.03
2019-02-12T06:43:59.565Z,16.83
2019-02-12T06:46:29.871Z,19.30
2019-02-12T06:48:59.127Z,13.67
2019-02-12T06:51:32.021Z,20.63
2019-02-12T06:54:02.230Z,20.20
2019-02-12T06:56:31.525Z,18.50
2019-02-12T06:59:00.760Z,20.33
2019-02-12T07:01:31.989Z,17.93
2019-02-12T07:04:01.208Z,17.63
2019-02-12T07:06:42.187Z,17.33
2019-02-12T07:09:17.107Z,16.87
2019-02-12T07:12:18.924Z,17.10
2019-02-12T07:15:00.284Z,18.57
2019-02-12T07:17:38.261Z,20.83
2019-02-12T07:20:29.814Z,25.03
2019-02-12T07:23:21.297Z,18.57
2019-02-12T07:26:00.332Z,20.87
2019-02-12T07:28:47.389Z,21.43
2019-02-12T07:31:29.712Z,18.03
2019-02-12T07:34:17.030Z,22.00
2019-02-12T07:37:01.082Z,19.77
2019-02-12T07:39:49.448Z,23.77
2019-02-12T07:42:39.806Z,22.97
2019-02-12T07:45:28.093Z,23.40
2019-02-12T07:48:10.109Z,20.03
2019-02-12T07:50:42.539Z,17.87
2019-02-12T07:53:30.606Z,22.20
2019-02-12T07:56:04.847Z,21.93
2019-02-12T07:58:49.084Z,21.23
2019-02-12T08:01:46.795Z,21.23
2019-02-12T08:04:31.081Z,17.63
2019-02-12T08:07:12.275Z,18.73
2019-02-12T08:09:53.666Z,23.37
2019-02-12T08:12:33.909Z,25.17
2019-02-12T08:15:30.363Z,15.37
2019-02-12T08:18:10.627Z,20.47
2019-02-12T08:21:15.471Z,18.80
2019-02-12T08:24:05.454Z,20.07
2019-02-12T08:26:40.675Z,19.67
2019-02-12T08:29:21.569Z,19.73
2019-02-12T08:32:12.938Z,20.33
2019-02-12T08:34:59.950Z,21.77
2019-02-12T08:38:07.312Z,14.00
2019-02-12T08:40:45.678Z,17.53
2019-02-12T08:43:36.202Z,19.07
2019-02-12T08:46:15.154Z,19.53
2019-02-12T08:49:04.324Z,19.83
2019-02-12T08:51:56.320Z,25.30
2019-02-12T08:54:37.784Z,22.03
2019-02-12T08:57:18.266Z,22.67
2019-02-12T09:00:13.939Z,20.60
2019-02-12T09:02:46.376Z,22.67
2019-02-12T09:05:30.479Z,29.53
2019-02-12T09:08:21.803Z,15.93
2019-02-12T09:11:10.761Z,25.07
2019-02-12T09:13:46.981Z,34.53
2019-02-12T09:16:35.622Z,19.57
2019-02-12T09:19:08.043Z,25.23
2019-02-12T09:21:58.425Z,16.30
2019-02-12T09:24:47.161Z,22.87
2019-02-12T09:27:22.592Z,20.57
2019-02-12T09:30:05.180Z,24.90
2019-02-12T09:32:53.062Z,29.10
2019-02-12T09:35:31.315Z,23.13
2019-02-12T09:38:23.999Z,22.77
2019-02-12T09:40:56.447Z,25.13
2019-02-12T09:43:41.816Z,19.40
2019-02-12T09:46:41.670Z,23.87
2019-02-12T09:49:38.777Z,23.97
2019-02-12T09:52:33.619Z,25.03
2019-02-12T09:55:32.489Z,26.57
2019-02-12T09:58:34.283Z,23.10
2019-02-12T10:01:10.098Z,28.53
2019-02-12T10:03:48.205Z,27.77
2019-02-12T10:06:32.764Z,30.07
2019-02-12T10:09:22.900Z,27.50
2019-02-12T10:12:19.009Z,30.37
2019-02-12T10:15:04.219Z,35.07
2019-02-12T10:17:48.321Z,34.17
2019-02-12T10:20:30.596Z,28.07
2019-02-12T10:23:14.797Z,26.23
2019-02-12T10:25:45.272Z,35.47
2019-02-12T10:28:32.387Z,29.90
2019-02-12T10:31:04.919Z,31.90
2019-02-12T10:33:40.840Z,32.40
2019-02-12T10:36:10.093Z,34.90
2019-02-12T10:38:39.351Z,35.27
2019-02-12T10:41:09.552Z,38.20
2019-02-12T10:43:38.804Z,50.83
2019-02-12T10:46:08.990Z,41.37
2019-02-12T10:48:39.171Z,48.90
2019-02-12T10:51:09.428Z,46.17
2019-02-12T10:53:38.744Z,59.37
2019-02-12T10:56:08.026Z,59.00
2019-02-12T10:58:37.291Z,63.23
2019-02-12T11:01:07.448Z,58.27
2019-02-12T11:03:36.693Z,64.20
2019-02-12T11:06:05.978Z,57.43
2019-02-12T11:08:35.253Z,42.50
2019-02-12T11:11:04.578Z,38.33
2019-02-12T11:13:33.822Z,33.97
2019-02-12T11:16:03.064Z,29.80
2019-02-12T11:18:32.318Z,33.67
2019-02-12T11:21:02.570Z,35.37
2019-02-12T11:23:31.819Z,37.40
2019-02-12T11:26:01.061Z,30.57
2019-02-12T11:28:32.244Z,30.13
2019-02-12T11:31:01.503Z,44.07
2019-02-12T11:33:30.747Z,31.13
2019-02-12T11:36:00.004Z,32.13
2019-02-12T11:38:29.228Z,32.50
2019-02-12T11:40:58.484Z,38.17
2019-02-12T11:43:27.730Z,30.93
2019-02-12T11:45:56.957Z,39.87
2019-02-12T11:48:26.206Z,32.57
2019-02-12T11:50:55.452Z,30.53
2019-02-12T11:53:24.702Z,30.83
2019-02-12T11:55:53.952Z,26.07
2019-02-12T11:58:24.107Z,26.50
2019-02-12T12:00:54.994Z,24.03
2019-02-12T12:03:24.242Z,30.77
2019-02-12T12:05:54.544Z,32.77
2019-02-12T12:08:23.848Z,29.93
2019-02-12T12:10:53.084Z,28.23
2019-02-12T12:13:22.335Z,29.30
2019-02-12T12:15:51.599Z,25.70
2019-02-12T12:18:20.859Z,26.23
2019-02-12T12:20:50.112Z,31.73
2019-02-12T12:23:19.366Z,24.77
2019-02-12T12:25:50.533Z,24.30
2019-02-12T12:28:20.783Z,25.60
2019-02-12T12:30:50.022Z,29.73
2019-02-12T12:33:20.264Z,27.37
2019-02-12T12:35:49.493Z,23.77
2019-02-12T12:38:18.799Z,23.17
2019-02-12T12:40:48.039Z,22.27
2019-02-12T12:43:18.288Z,25.63
2019-02-12T12:45:47.512Z,20.67
2019-02-12T12:48:16.778Z,28.77
2019-02-12T12:50:46.012Z,23.27
2019-02-12T12:53:15.263Z,27.13
2019-02-12T12:55:44.484Z,28.20
2019-02-12T12:58:14.695Z,25.20
2019-02-12T13:00:43.964Z,23.93
2019-02-12T13:03:13.556Z,30.20
2019-02-12T13:05:42.821Z,26.77
2019-02-12T13:08:12.038Z,24.43
2019-02-12T13:10:41.287Z,28.40
2019-02-12T13:13:10.524Z,24.37
2019-02-12T13:15:39.780Z,21.93
2019-02-12T13:18:09.001Z,25.87
2019-02-12T13:20:38.250Z,21.97
2019-02-12T13:23:08.485Z,28.27
2019-02-12T13:25:39.821Z,25.87
2019-02-12T13:28:09.042Z,26.13
2019-02-12T13:30:38.294Z,21.43
2019-02-12T13:33:07.535Z,25.67
2019-02-12T13:35:36.792Z,22.97
2019-02-12T13:38:06.041Z,20.67
2019-02-12T13:40:35.295Z,19.43
2019-02-12T13:43:04.522Z,23.97
2019-02-12T13:45:33.767Z,19.73
2019-02-12T13:48:03.022Z,21.03
2019-02-12T13:50:32.424Z,23.70
2019-02-12T13:53:01.672Z,25.27
2019-02-12T13:55:31.888Z,19.50
2019-02-12T13:58:02.111Z,22.23
2019-02-12T14:00:31.330Z,19.97
2019-02-12T14:03:00.605Z,23.87
2019-02-12T14:05:29.891Z,22.70
2019-02-12T14:07:59.182Z,27.70
2019-02-12T14:10:28.430Z,23.77
2019-02-12T14:12:58.670Z,20.63
2019-02-12T14:15:27.892Z,23.67
2019-02-12T14:17:57.135Z,22.47
2019-02-12T14:20:26.387Z,20.00
2019-02-12T14:22:55.716Z,23.93
2019-02-12T14:25:26.103Z,25.03
2019-02-12T14:27:55.361Z,26.13
2019-02-12T14:30:24.625Z,19.17
2019-02-12T14:32:53.882Z,21.43
2019-02-12T14:35:23.122Z,16.80
2019-02-12T14:37:52.370Z,25.60
2019-02-12T14:40:21.620Z,19.70
2019-02-12T14:42:50.854Z,23.27
2019-02-12T14:45:20.337Z,24.70
2019-02-12T14:47:49.583Z,19.07
2019-02-12T14:50:20.066Z,21.33
2019-02-12T14:52:49.310Z,24.50
2019-02-12T14:55:18.548Z,25.97
2019-02-12T14:57:47.839Z,23.90
2019-02-12T15:00:20.455Z,22.43
2019-02-12T15:02:49.714Z,19.50
2019-02-12T15:05:18.959Z,23.43
2019-02-12T15:07:49.184Z,23.00
2019-02-12T15:10:18.424Z,26.73
2019-02-12T15:12:48.583Z,23.47
2019-02-12T15:15:17.842Z,22.00
2019-02-12T15:17:47.086Z,35.57
2019-02-12T15:20:16.317Z,27.77
2019-02-12T15:22:45.573Z,22.87
2019-02-12T15:25:14.818Z,21.67
2019-02-12T15:27:45.042Z,22.27
2019-02-12T15:30:18.167Z,22.33
2019-02-12T15:32:47.420Z,23.57
2019-02-12T15:35:16.765Z,20.83
2019-02-12T15:37:46.000Z,25.13
2019-02-12T15:40:17.003Z,21.70
2019-02-12T15:42:46.257Z,23.20
2019-02-12T15:45:23.255Z,23.23
2019-02-12T15:47:53.443Z,23.03
2019-02-12T15:50:22.684Z,20.53
2019-02-12T15:52:51.907Z,25.00
2019-02-12T15:55:21.158Z,23.47
2019-02-12T15:57:50.406Z,18.97
2019-02-12T16:00:20.700Z,20.23
2019-02-12T16:02:50.016Z,24.97
2019-02-12T16:05:19.282Z,20.47
2019-02-12T16:07:48.543Z,21.97
2019-02-12T16:10:21.854Z,19.57
2019-02-12T16:12:51.655Z,21.03
2019-02-12T16:15:24.560Z,25.87
2019-02-12T16:17:52.949Z,23.03
2019-02-12T16:20:22.223Z,21.20
2019-02-12T16:22:51.507Z,24.87
2019-02-12T16:25:20.707Z,28.53
2019-02-12T16:27:49.949Z,25.00
2019-02-12T16:30:22.457Z,24.07
2019-02-12T16:32:51.711Z,23.10
2019-02-12T16:35:20.964Z,24.03
2019-02-12T16:37:51.139Z,21.83
2019-02-12T16:40:21.372Z,29.23
2019-02-12T16:42:50.598Z,25.70
2019-02-12T16:45:30.900Z,23.57
2019-02-12T16:48:00.307Z,23.83
2019-02-12T16:50:29.568Z,24.93
2019-02-12T16:52:58.792Z,25.17
2019-02-12T16:55:28.033Z,26.07
2019-02-12T16:57:57.364Z,22.93
2019-02-12T17:00:26.579Z,25.23
2019-02-12T17:02:56.746Z,26.03
2019-02-12T17:05:25.979Z,26.90
2019-02-12T17:07:56.183Z,22.40
2019-02-12T17:10:25.509Z,25.83
2019-02-12T17:12:54.744Z,23.33
2019-02-12T17:15:24.973Z,25.33
2019-02-12T17:17:55.213Z,23.13
2019-02-12T17:20:25.398Z,21.00
2019-02-12T17:22:54.668Z,22.27
2019-02-12T17:25:23.916Z,22.33
2019-02-12T17:27:54.155Z,22.97
2019-02-12T17:30:23.414Z,22.97
2019-02-12T17:32:52.673Z,23.67
2019-02-12T17:35:21.912Z,21.87
2019-02-12T17:37:56.984Z,22.57
2019-02-12T17:40:26.237Z,24.50
2019-02-12T17:42:55.516Z,22.43
2019-02-12T17:45:24.756Z,25.37
2019-02-12T17:47:54.009Z,27.10
2019-02-12T17:50:23.531Z,18.90
2019-02-12T17:52:52.803Z,22.80
2019-02-12T17:55:24.029Z,24.50
2019-02-12T17:57:54.238Z,21.90
2019-02-12T18:00:26.114Z,22.90
2019-02-12T18:02:55.354Z,25.33
2019-02-12T18:05:32.081Z,24.17
2019-02-12T18:08:02.296Z,20.10
2019-02-12T18:10:31.548Z,22.80
2019-02-12T18:13:00.804Z,24.23
2019-02-12T18:15:31.202Z,25.47
2019-02-12T18:18:00.466Z,22.57
2019-02-12T18:20:29.702Z,25.20
2019-02-12T18:22:58.955Z,22.33
2019-02-12T18:25:28.207Z,24.70
2019-02-12T18:27:57.470Z,23.53
2019-02-12T18:30:26.711Z,24.00
2019-02-12T18:32:57.893Z,24.63
2019-02-12T18:35:28.092Z,27.57
2019-02-12T18:37:57.356Z,25.40
2019-02-12T18:40:26.608Z,23.20
2019-02-12T18:42:55.842Z,24.53
2019-02-12T18:45:26.106Z,23.50
2019-02-12T18:47:55.414Z,22.03
2019-02-12T18:50:24.616Z,21.57
2019-02-12T18:52:55.764Z,28.90
2019-02-12T18:55:24.989Z,28.20
2019-02-12T18:57:54.224Z,24.30
2019-02-12T19:00:23.771Z,24.57
2019-02-12T19:02:53.027Z,21.53
2019-02-12T19:05:22.245Z,24.50
2019-02-12T19:07:53.397Z,25.40
2019-02-12T19:10:22.639Z,20.83
2019-02-12T19:12:51.960Z,27.53
2019-02-12T19:15:22.049Z,20.57
2019-02-12T19:18:07.221Z,23.43
2019-02-12T19:20:36.462Z,23.27
2019-02-12T19:23:05.773Z,23.40
2019-02-12T19:25:35.106Z,21.50
2019-02-12T19:28:04.413Z,25.17
2019-02-12T19:30:35.676Z,21.70
2019-02-12T19:33:04.913Z,24.23
2019-02-12T19:35:35.087Z,24.40
2019-02-12T19:38:04.337Z,20.53
2019-02-12T19:40:33.592Z,26.43
2019-02-12T19:43:07.451Z,20.23
2019-02-12T19:45:37.778Z,24.37
2019-02-12T19:48:08.032Z,23.97
2019-02-12T19:50:37.278Z,25.33
2019-02-12T19:53:07.431Z,28.07
2019-02-12T19:55:36.667Z,21.97
2019-02-12T19:58:05.915Z,25.27
2019-02-12T20:00:35.185Z,25.83
2019-02-12T20:03:04.852Z,27.03
2019-02-12T20:05:35.113Z,25.97
2019-02-12T20:08:04.368Z,22.30
2019-02-12T20:10:33.620Z,20.57
2019-02-12T20:13:02.950Z,29.90
2019-02-12T20:15:32.193Z,22.57
2019-02-12T20:18:01.441Z,26.10
2019-02-12T20:20:30.702Z,26.77
2019-02-12T20:22:59.962Z,24.00
2019-02-12T20:25:29.263Z,27.57
2019-02-12T20:27:58.518Z,22.80
2019-02-12T20:30:27.772Z,25.07
2019-02-12T20:32:57.034Z,27.27
2019-02-12T20:35:26.267Z,22.40
2019-02-12T20:37:55.591Z,23.63
2019-02-12T20:40:24.851Z,23.50
2019-02-12T20:42:54.089Z,22.83
2019-02-12T20:45:23.341Z,24.43
2019-02-12T20:47:52.582Z,26.63
2019-02-12T20:50:21.977Z,23.00
2019-02-12T20:52:51.218Z,25.03
2019-02-12T20:55:20.464Z,24.87
2019-02-12T20:57:49.732Z,23.43
2019-02-12T21:00:21.426Z,22.17
2019-02-12T21:02:50.659Z,23.43
2019-02-12T21:05:20.852Z,24.90
2019-02-12T21:07:50.346Z,22.40
2019-02-12T21:10:24.018Z,25.67
2019-02-12T21:12:53.243Z,24.67
2019-02-12T21:15:27.275Z,22.10
2019-02-12T21:17:56.514Z,24.33
2019-02-12T21:20:25.781Z,24.97
2019-02-12T21:22:57.284Z,22.00
2019-02-12T21:25:26.522Z,21.93
2019-02-12T21:27:55.780Z,22.37
2019-02-12T21:30:33.221Z,25.27
2019-02-12T21:33:02.474Z,22.13
2019-02-12T21:35:31.721Z,25.90
2019-02-12T21:38:01.533Z,22.70
2019-02-12T21:40:31.758Z,21.73
2019-02-12T21:43:01.009Z,22.40
2019-02-12T21:45:30.253Z,24.13
2019-02-12T21:47:59.490Z,21.87
2019-02-12T21:50:29.669Z,22.73
2019-02-12T21:52:58.920Z,25.50
2019-02-12T21:55:28.167Z,23.93
2019-02-12T21:57:58.798Z,24.37
2019-02-12T22:00:28.128Z,25.50
2019-02-12T22:02:57.354Z,25.67
2019-02-12T22:05:26.594Z,23.97
2019-02-12T22:07:55.848Z,22.87
2019-02-12T22:10:26.868Z,23.63
2019-02-12T22:12:56.122Z,26.30
2019-02-12T22:15:26.354Z,24.17
2019-02-12T22:17:55.621Z,23.73
2019-02-12T22:20:24.862Z,26.27
2019-02-12T22:22:54.117Z,22.83
2019-02-12T22:25:23.372Z,26.50
2019-02-12T22:27:52.686Z,25.10
2019-02-12T22:30:23.463Z,27.03
2019-02-12T22:32:52.703Z,25.63
2019-02-12T22:35:21.944Z,25.63
2019-02-12T22:37:51.471Z,25.30
2019-02-12T22:40:21.712Z,25.07
2019-02-12T22:42:50.988Z,27.47
2019-02-12T22:45:25.699Z,26.07
2019-02-12T22:47:54.955Z,28.73
2019-02-12T22:50:24.211Z,32.07
2019-02-12T22:52:53.452Z,26.87
2019-02-12T22:55:22.687Z,29.30
2019-02-12T22:57:51.916Z,28.13
2019-02-12T23:00:47.102Z,26.07
2019-02-12T23:03:16.409Z,23.97
2019-02-12T23:05:45.660Z,27.33
2019-02-12T23:08:14.892Z,26.20
2019-02-12T23:10:44.221Z,25.23
2019-02-12T23:13:13.527Z,26.60
2019-02-12T23:15:42.872Z,23.33
2019-02-12T23:18:12.100Z,23.53
2019-02-12T23:20:41.349Z,24.70
2019-02-12T23:23:11.556Z,26.27
2019-02-12T23:25:40.813Z,27.03
2019-02-12T23:28:10.040Z,27.20
2019-02-12T23:30:39.288Z,26.20
2019-02-12T23:33:09.473Z,25.23
2019-02-12T23:35:38.746Z,24.57
2019-02-12T23:38:09.934Z,26.57
2019-02-12T23:40:39.222Z,27.50
2019-02-12T23:43:09.502Z,25.83
2019-02-12T23:45:38.706Z,25.67
2019-02-12T23:48:08.085Z,25.90
2019-02-12T23:50:37.321Z,23.83
2019-02-12T23:53:06.577Z,27.80
2019-02-12T23:55:35.802Z,26.47
2019-02-12T23:58:06.261Z,23.83
